Time;durP1;ratioP1;P1;durP2;ratioP2;P2;SDS_P1;SDS_P2;PMS_P1;PMS_P2;Temp;Humidity;BMP_temperature;BMP_pressure;BME280_temperature;BME280_humidity;BME280_pressure;Samples;Min_cycle;Max_cycle;Signal;HPM_P1;HPM_P2
2022/11/08 00:01:44;;;;;;;24.60;3.65;;;;;;;13.16;100.00;100265.47;5097706;28;20070;-63
2022/11/08 00:04:13;;;;;;;33.90;4.20;;;;;;;13.17;100.00;100264.41;5108775;28;20062;-63
2022/11/08 00:14:53;;;;;;;34.67;3.90;;;;;;;13.17;100.00;100264.41;5086567;28;20039;-63
2022/11/08 00:17:20;;;;;;;27.05;4.10;;;;;;;13.16;100.00;100260.06;5100607;28;20040;-64
2022/11/08 00:19:45;;;;;;;33.50;4.22;;;;;;;13.17;100.00;100264.41;5090757;28;20393;-64
2022/11/08 00:22:11;;;;;;;29.77;4.35;;;;;;;13.02;100.00;100237.00;5077915;28;20027;-63
2022/11/08 00:24:37;;;;;;;36.30;4.07;;;;;;;13.07;100.00;100251.47;5106488;28;20024;-64
2022/11/08 00:27:04;;;;;;;29.13;4.25;;;;;;;13.03;100.00;100239.47;5102851;28;20035;-64
2022/11/08 00:29:30;;;;;;;31.00;4.03;;;;;;;13.21;100.00;100264.78;5098749;28;20054;-64
2022/11/08 00:31:55;;;;;;;30.65;4.18;;;;;;;13.21;100.00;100265.63;5109082;28;20032;-64
2022/11/08 00:34:20;;;;;;;27.55;4.25;;;;;;;13.24;100.00;100270.56;5078840;28;20071;-63
2022/11/08 00:36:50;;;;;;;25.20;4.10;;;;;;;13.16;100.00;100250.09;5104861;28;20028;-63
2022/11/08 00:39:15;;;;;;;32.42;4.80;;;;;;;13.27;100.00;100266.59;5104009;28;20379;-63
2022/11/08 00:41:41;;;;;;;32.63;3.95;;;;;;;13.29;100.00;100269.91;5097175;28;20093;-64
2022/11/08 00:44:06;;;;;;;35.53;4.40;;;;;;;13.30;100.00;100276.94;5090673;28;20449;-64
2022/11/08 00:46:31;;;;;;;35.40;5.03;;;;;;;13.31;100.00;100270.47;5062934;28;20028;-64
2022/11/08 00:48:57;;;;;;;38.97;4.95;;;;;;;13.34;100.00;100278.13;5103181;28;20051;-64
2022/11/08 00:51:22;;;;;;;35.08;4.97;;;;;;;13.34;100.00;100276.28;5086763;28;20031;-63
2022/11/08 00:53:47;;;;;;;35.95;5.78;;;;;;;13.21;100.00;100252.13;5077667;28;20061;-64
2022/11/08 00:56:13;;;;;;;34.22;4.63;;;;;;;13.36;100.00;100276.03;5090718;28;20036;-64
2022/11/08 00:58:43;;;;;;;30.40;5.65;;;;;;;13.37;100.00;100283.91;5098760;28;20096;-64
2022/11/08 01:01:15;;;;;;;39.58;5.70;;;;;;;13.43;100.00;100275.94;5101501;28;20077;-63
2022/11/08 01:03:44;;;;;;;39.35;5.32;;;;;;;13.42;100.00;100280.53;5107357;28;20102;-64
2022/11/08 01:06:12;;;;;;;43.38;5.50;;;;;;;13.38;100.00;100279.34;5095132;28;20035;-64
2022/11/08 01:08:38;;;;;;;41.85;5.30;;;;;;;13.33;100.00;100268.38;5087297;28;20040;-63
2022/11/08 01:11:07;;;;;;;40.67;5.55;;;;;;;13.43;100.00;100270.53;5101781;28;20039;-63
2022/11/08 01:13:36;;;;;;;37.40;4.22;;;;;;;13.45;100.00;100271.13;5097880;28;20057;-63
2022/11/08 01:16:14;;;;;;;38.08;4.88;;;;;;;13.36;100.00;100251.72;5090853;28;20055;-69
2022/11/08 01:18:40;;;;;;;30.58;5.03;;;;;;;13.48;100.00;100268.78;5098459;28;20027;-64
2022/11/08 01:21:06;;;;;;;43.60;5.43;;;;;;;13.48;100.00;100268.78;5101644;28;20036;-64
2022/11/08 01:23:32;;;;;;;39.90;5.07;;;;;;;13.50;100.00;100271.25;5105731;28;20027;-64
2022/11/08 01:26:04;;;;;;;40.88;5.35;;;;;;;13.50;100.00;100265.84;5094587;28;20036;-63
2022/11/08 01:28:31;;;;;;;35.80;5.00;;;;;;;13.46;100.00;100260.06;5088239;28;20106;-63
2022/11/08 01:30:56;;;;;;;37.58;4.75;;;;;;;13.49;100.00;100258.81;5100512;28;20027;-63
2022/11/08 01:33:21;;;;;;;37.10;5.10;;;;;;;13.49;100.00;100265.03;5099255;28;20057;-63
2022/11/08 01:35:47;;;;;;;33.80;5.25;;;;;;;13.50;100.00;100258.56;5107686;28;20035;-63
2022/11/08 01:38:12;;;;;;;51.08;5.45;;;;;;;13.52;100.00;100251.03;5076602;28;20042;-63
2022/11/08 01:40:46;;;;;;;41.20;5.07;;;;;;;13.50;100.00;100250.44;5105442;28;20513;-63
2022/11/08 01:43:30;;;;;;;38.08;5.40;;;;;;;13.54;100.00;100251.66;5102602;28;20062;-63
2022/11/08 01:46:10;;;;;;;33.95;5.18;;;;;;;13.56;100.00;100246.00;5094421;28;20517;-63
2022/11/08 01:48:41;;;;;;;47.45;5.22;;;;;;;13.45;100.00;100226.00;5087252;28;20452;-63
2022/11/08 01:51:17;;;;;;;46.08;5.72;;;;;;;13.55;100.00;100250.59;5083688;28;20020;-63
2022/11/08 01:53:44;;;;;;;49.00;5.82;;;;;;;13.50;100.00;100247.75;5095911;28;20077;-63
2022/11/08 01:56:11;;;;;;;40.28;4.68;;;;;;;13.58;100.00;100255.53;5072933;28;20031;-64
2022/11/08 01:58:38;;;;;;;44.88;5.57;;;;;;;13.54;100.00;100254.34;5097256;28;20024;-64
2022/11/08 02:01:04;;;;;;;45.53;6.05;;;;;;;13.62;100.00;100255.88;5101359;28;20040;-64
2022/11/08 02:03:33;;;;;;;48.55;6.13;;;;;;;13.48;100.00;100230.94;5104570;28;20028;-64
2022/11/08 02:06:00;;;;;;;56.50;6.75;;;;;;;13.62;100.00;100255.88;5094343;28;20028;-64
2022/11/08 02:08:25;;;;;;;51.03;6.38;;;;;;;13.66;100.00;100258.94;5106658;28;20035;-63
2022/11/08 02:10:52;;;;;;;39.42;6.53;;;;;;;13.66;100.00;100261.66;5099480;28;20111;-63
2022/11/08 02:13:25;;;;;;;61.22;6.15;;;;;;;13.70;100.00;100249.31;5081839;28;20050;-63
2022/11/08 02:15:51;;;;;;;44.45;6.05;;;;;;;13.70;100.00;100249.31;5107951;28;20032;-64
2022/11/08 02:18:19;;;;;;;47.55;6.28;;;;;;;13.70;100.00;100250.13;5076120;28;20039;-64
2022/11/08 02:20:50;;;;;;;47.72;5.80;;;;;;;13.70;100.00;100246.59;5104062;28;20043;-64
2022/11/08 02:23:25;;;;;;;39.30;4.90;;;;;;;13.71;100.00;100240.13;5084346;28;20035;-63
2022/11/08 02:25:50;;;;;;;48.58;6.93;;;;;;;13.71;100.00;100245.53;5076494;28;20553;-64
2022/11/08 02:28:16;;;;;;;53.10;6.20;;;;;;;13.70;100.00;100238.50;5110087;28;20064;-63
2022/11/08 02:30:41;;;;;;;54.08;7.07;;;;;;;13.69;100.00;100237.69;5101521;28;20028;-63
2022/11/08 02:33:19;;;;;;;49.67;5.65;;;;;;;13.73;100.00;100243.44;5086609;28;20078;-63
2022/11/08 02:35:48;;;;;;;46.50;6.20;;;;;;;13.71;100.00;100232.03;5110349;28;20034;-63
2022/11/08 02:38:14;;;;;;;53.50;6.35;;;;;;;13.74;100.00;100235.09;5079596;28;20103;-63
2022/11/08 02:40:50;;;;;;;45.80;5.70;;;;;;;13.75;100.00;100241.34;5108428;28;20034;-63
2022/11/08 02:43:18;;;;;;;51.17;6.65;;;;;;;13.71;100.00;100240.13;5106285;28;20035;-63
2022/11/08 02:45:44;;;;;;;45.20;6.25;;;;;;;13.73;100.00;100240.72;5063816;28;20044;-63
2022/11/08 02:48:10;;;;;;;49.28;7.03;;;;;;;13.74;100.00;100251.34;5111220;28;20031;-64
2022/11/08 02:50:35;;;;;;;55.80;6.97;;;;;;;13.74;100.00;100234.25;5100181;28;20549;-63
2022/11/08 02:53:01;;;;;;;50.05;6.47;;;;;;;13.74;100.00;100239.66;5105159;28;20080;-64
2022/11/08 02:55:27;;;;;;;43.42;6.45;;;;;;;13.75;100.00;100234.03;5089325;28;20554;-64
2022/11/08 02:57:53;;;;;;;49.80;6.10;;;;;;;13.70;100.00;100225.78;5079413;28;20086;-64
2022/11/08 03:00:19;;;;;;;48.05;6.88;;;;;;;13.78;100.00;100236.28;5044039;28;20068;-64
2022/11/08 03:02:44;;;;;;;47.70;6.60;;;;;;;13.77;100.00;100239.19;5053942;28;20040;-63
2022/11/08 03:05:10;;;;;;;48.80;6.63;;;;;;;13.78;100.00;100238.16;5053748;28;20614;-63
2022/11/08 03:07:35;;;;;;;49.30;6.03;;;;;;;13.78;100.00;100235.47;5053679;28;20029;-63
2022/11/08 03:10:01;;;;;;;49.95;6.25;;;;;;;13.80;100.00;100238.72;5053600;28;20623;-63
2022/11/08 03:12:26;;;;;;;52.03;6.80;;;;;;;13.76;100.00;100234.84;5053740;28;20040;-63
2022/11/08 03:14:51;;;;;;;45.83;6.70;;;;;;;13.81;100.00;100246.63;5052486;28;20024;-63
2022/11/08 03:17:17;;;;;;;58.45;7.03;;;;;;;13.75;100.00;100225.94;5052445;28;20040;-63
2022/11/08 03:19:42;;;;;;;53.83;7.05;;;;;;;13.83;100.00;100244.50;5052389;28;20041;-63
2022/11/08 03:22:07;;;;;;;47.95;6.72;;;;;;;13.83;100.00;100246.38;5017808;28;20381;-63
2022/11/08 03:24:33;;;;;;;60.10;6.97;;;;;;;13.82;100.00;100252.84;5053376;28;20033;-63
2022/11/08 03:26:59;;;;;;;45.28;6.65;;;;;;;13.83;100.00;100251.78;5052171;28;20044;-63
2022/11/08 03:29:24;;;;;;;40.17;6.15;;;;;;;13.84;100.00;100253.44;5053352;28;20041;-63
2022/11/08 03:31:50;;;;;;;45.70;6.95;;;;;;;13.86;100.00;100245.91;5052282;28;20044;-63
2022/11/08 03:34:15;;;;;;;43.35;6.03;;;;;;;13.88;100.00;100251.09;5051944;28;20025;-63
2022/11/08 03:36:40;;;;;;;39.08;5.72;;;;;;;13.83;100.00;100252.59;5035303;28;20029;-63
2022/11/08 03:39:06;;;;;;;44.17;5.90;;;;;;;13.88;100.00;100253.81;5053219;28;20033;-63
2022/11/08 03:41:31;;;;;;;46.97;6.13;;;;;;;13.91;100.00;100254.16;5052018;28;20044;-64
2022/11/08 03:43:57;;;;;;;45.83;6.43;;;;;;;13.86;100.00;100237.81;5035275;28;20037;-63
2022/11/08 03:46:22;;;;;;;48.17;6.60;;;;;;;13.92;100.00;100246.88;5053279;28;20032;-64
2022/11/08 03:48:47;;;;;;;41.80;6.93;;;;;;;13.90;100.00;100241.69;5052896;28;20025;-63
2022/11/08 03:51:13;;;;;;;49.67;6.68;;;;;;;13.90;100.00;100249.78;5053136;28;20032;-64
2022/11/08 03:53:38;;;;;;;35.03;6.30;;;;;;;13.91;100.00;100246.06;5053043;28;20086;-63
2022/11/08 03:56:04;;;;;;;44.70;6.93;;;;;;;13.92;100.00;100252.28;5051479;28;20401;-63
2022/11/08 03:58:29;;;;;;;51.53;7.53;;;;;;;13.95;100.00;100241.00;5034906;28;20037;-63
2022/11/08 04:00:56;;;;;;;45.67;6.60;;;;;;;13.82;100.00;100212.28;5076885;28;20072;-63
2022/11/08 04:03:22;;;;;;;48.85;6.57;;;;;;;13.98;100.00;100240.53;5079586;28;20025;-63
2022/11/08 04:05:48;;;;;;;54.38;7.35;;;;;;;13.98;100.00;100252.16;5088278;28;20032;-64
2022/11/08 04:08:13;;;;;;;38.55;6.68;;;;;;;13.99;100.00;100242.97;5074742;28;20044;-64
2022/11/08 04:10:38;;;;;;;49.28;6.55;;;;;;;14.01;100.00;100242.75;5087084;28;20032;-63
2022/11/08 04:15:52;;;;;;;41.75;6.63;;;;;;;13.92;100.00;100246.88;5077167;28;20071;-63
2022/11/08 04:21:21;;;;;;;47.75;6.85;;;;;;;13.98;100.00;100256.75;5081871;28;20101;-63
2022/11/08 04:23:48;;;;;;;40.70;6.35;;;;;;;13.98;100.00;100248.63;5077105;28;20115;-63
2022/11/08 04:26:13;;;;;;;46.20;6.45;;;;;;;13.92;100.00;100253.09;5089044;28;20398;-64
2022/11/08 04:28:40;;;;;;;43.08;6.47;;;;;;;14.00;100.00;100251.91;5077090;28;20089;-64
2022/11/08 04:31:27;;;;;;;38.60;6.38;;;;;;;14.02;100.00;100253.31;5082592;28;20082;-63
2022/11/08 04:33:52;;;;;;;45.60;6.53;;;;;;;14.02;100.00;100260.63;5088622;28;20027;-63
2022/11/08 04:36:18;;;;;;;38.42;6.82;;;;;;;14.02;100.00;100257.91;5074402;28;20097;-63
2022/11/08 04:38:54;;;;;;;44.20;6.70;;;;;;;14.01;100.00;100256.28;5085563;28;20042;-64
2022/11/08 04:41:21;;;;;;;43.30;7.82;;;;;;;13.88;100.00;100233.00;5082571;28;20097;-64
2022/11/08 04:43:48;;;;;;;42.60;6.15;;;;;;;14.05;100.00;100252.88;5075524;28;20032;-64
2022/11/08 04:46:15;;;;;;;36.38;6.78;;;;;;;14.04;100.00;100256.63;5088634;28;20036;-64
2022/11/08 04:48:42;;;;;;;39.65;6.55;;;;;;;14.06;100.00;100257.19;5078125;28;20031;-64
2022/11/08 04:51:17;;;;;;;39.05;6.25;;;;;;;14.09;100.00;100258.63;5081551;28;20044;-64
2022/11/08 04:53:43;;;;;;;42.85;6.82;;;;;;;14.12;100.00;100258.16;5085508;28;20055;-63
2022/11/08 04:56:12;;;;;;;46.60;6.80;;;;;;;14.14;100.00;100256.03;5074898;28;20067;-63
2022/11/08 04:58:40;;;;;;;43.45;6.82;;;;;;;14.14;100.00;100247.94;5084972;28;20033;-64
2022/11/08 05:01:07;;;;;;;35.67;6.90;;;;;;;14.16;100.00;100255.78;5079940;28;20040;-64
2022/11/08 05:03:33;;;;;;;38.00;7.10;;;;;;;14.14;100.00;100252.50;5077061;28;20406;-65
2022/11/08 05:06:03;;;;;;;38.28;7.55;;;;;;;14.19;100.00;100248.03;5088581;28;20111;-63
2022/11/08 05:08:29;;;;;;;38.38;6.53;;;;;;;14.21;100.00;100253.22;5076021;28;20035;-65
2022/11/08 05:11:01;;;;;;;36.22;7.00;;;;;;;14.00;100.00;100222.16;5083558;28;20029;-64
2022/11/08 05:13:27;;;;;;;37.47;7.15;;;;;;;14.22;100.00;100252.97;5084371;28;20035;-64
2022/11/08 05:15:52;;;;;;;37.78;6.97;;;;;;;14.22;100.00;100254.84;5074438;28;20025;-63
2022/11/08 05:18:18;;;;;;;42.85;7.53;;;;;;;14.08;100.00;100227.22;5087966;28;20499;-64
2022/11/08 05:23:27;;;;;;;40.00;7.15;;;;;;;14.23;100.00;100261.91;5079408;28;20035;-63
2022/11/08 05:25:54;;;;;;;36.88;7.22;;;;;;;14.24;100.00;100261.69;5086298;28;20110;-63
2022/11/08 05:28:20;;;;;;;34.75;6.88;;;;;;;14.22;100.00;100260.28;5073468;28;20034;-63
2022/11/08 05:30:55;;;;;;;35.47;7.15;;;;;;;14.29;100.00;100259.06;5084713;28;20399;-63
2022/11/08 05:33:22;;;;;;;31.50;6.82;;;;;;;14.29;100.00;100255.56;5081899;28;20055;-63
2022/11/08 05:35:48;;;;;;;35.58;7.30;;;;;;;14.31;100.00;100256.97;5076026;28;20513;-64
2022/11/08 05:38:13;;;;;;;32.53;7.85;;;;;;;14.31;100.00;100246.13;5086492;28;20023;-65
2022/11/08 05:40:39;;;;;;;39.60;6.70;;;;;;;14.33;100.00;100254.81;5077080;28;20371;-65
2022/11/08 05:43:07;;;;;;;34.20;6.40;;;;;;;14.32;100.00;100263.19;5081817;28;20024;-64
2022/11/08 05:45:32;;;;;;;33.88;6.40;;;;;;;14.13;100.00;100230.03;5066606;28;20028;-65
2022/11/08 05:48:02;;;;;;;38.75;7.60;;;;;;;14.31;100.00;100258.84;5073143;28;20101;-65
2022/11/08 05:50:29;;;;;;;34.95;6.85;;;;;;;14.32;100.00;100263.19;5086818;28;20039;-65
2022/11/08 05:52:55;;;;;;;34.05;7.35;;;;;;;14.31;100.00;100262.38;5077901;28;20097;-64
2022/11/08 05:55:20;;;;;;;32.95;7.38;;;;;;;14.24;100.00;100250.03;5079455;28;20429;-65
2022/11/08 05:57:46;;;;;;;31.02;6.80;;;;;;;14.31;100.00;100262.38;5085122;28;20563;-64
2022/11/08 06:00:12;;;;;;;33.72;6.97;;;;;;;14.29;100.00;100258.25;5085217;28;20052;-64
2022/11/08 06:02:38;;;;;;;29.08;6.80;;;;;;;14.31;100.00;100261.56;5089190;28;20134;-65
2022/11/08 06:05:04;;;;;;;39.50;7.65;;;;;;;14.32;100.00;100260.50;5086136;28;20104;-64
2022/11/08 06:07:30;;;;;;;30.45;7.03;;;;;;;14.33;100.00;100259.41;5084522;28;20494;-64
2022/11/08 06:09:55;;;;;;;37.88;7.40;;;;;;;14.26;100.00;100242.50;5111536;28;20038;-65
2022/11/08 06:12:20;;;;;;;32.22;7.28;;;;;;;14.33;100.00;100254.00;5080618;28;20533;-65
2022/11/08 06:14:46;;;;;;;33.90;7.55;;;;;;;14.33;100.00;100249.41;5108549;28;20016;-64
2022/11/08 06:17:11;;;;;;;33.92;7.28;;;;;;;14.33;100.00;100254.81;5087212;28;20024;-64
2022/11/08 06:19:37;;;;;;;38.15;7.65;;;;;;;14.31;100.00;100250.75;5101103;28;20032;-64
2022/11/08 06:22:02;;;;;;;28.75;7.18;;;;;;;14.32;100.00;100253.19;5093384;28;20119;-65
2022/11/08 06:24:27;;;;;;;31.65;7.80;;;;;;;14.25;100.00;100241.69;5099017;28;20035;-64
2022/11/08 06:26:53;;;;;;;32.38;7.40;;;;;;;14.32;100.00;100257.78;5107412;28;20031;-64
2022/11/08 06:29:18;;;;;;;35.13;7.95;;;;;;;14.31;100.00;100254.25;5060166;28;20066;-64
2022/11/08 06:31:43;;;;;;;37.28;7.70;;;;;;;14.31;100.00;100256.16;5109895;28;20031;-64
2022/11/08 06:34:09;;;;;;;36.65;8.02;;;;;;;14.23;100.00;100237.56;5098009;28;20055;-64
2022/11/08 06:36:34;;;;;;;39.83;8.23;;;;;;;14.35;100.00;100257.31;5109887;28;20028;-64
2022/11/08 06:39:00;;;;;;;39.10;8.07;;;;;;;14.37;100.00;100252.50;5103504;28;20458;-64
2022/11/08 06:41:26;;;;;;;35.53;8.13;;;;;;;14.24;100.00;100240.03;5102452;28;20032;-64
2022/11/08 06:43:52;;;;;;;35.00;8.50;;;;;;;14.20;100.00;100230.72;5110443;28;20118;-64
2022/11/08 06:46:17;;;;;;;39.70;8.85;;;;;;;14.34;100.00;100250.25;5097833;28;20115;-63
2022/11/08 06:48:43;;;;;;;40.88;8.65;;;;;;;14.25;100.00;100236.25;5108579;28;20149;-65
2022/11/08 06:51:08;;;;;;;40.13;8.77;;;;;;;14.36;100.00;100258.94;5086029;28;20490;-63
2022/11/08 06:53:34;;;;;;;30.75;8.18;;;;;;;14.31;100.00;100251.56;5083365;28;20028;-64
2022/11/08 06:56:00;;;;;;;34.75;8.70;;;;;;;14.34;100.00;100248.38;5111047;28;20034;-65
2022/11/08 06:58:25;;;;;;;42.42;8.82;;;;;;;14.37;100.00;100252.50;5080098;28;20058;-64
2022/11/08 07:00:51;;;;;;;46.38;9.52;;;;;;;14.37;100.00;100252.50;5105566;28;20080;-64
2022/11/08 07:03:16;;;;;;;46.30;9.98;;;;;;;14.36;100.00;100245.41;5085724;28;20034;-65
2022/11/08 07:05:45;;;;;;;42.42;9.60;;;;;;;14.37;100.00;100246.25;5080790;28;20032;-64
2022/11/08 07:08:10;;;;;;;36.50;9.35;;;;;;;14.36;100.00;100253.53;5109514;28;20031;-64
2022/11/08 07:10:36;;;;;;;40.40;9.85;;;;;;;14.34;100.00;100247.56;5062952;28;20031;-64
2022/11/08 07:13:19;;;;;;;40.67;9.52;;;;;;;14.35;100.00;100246.50;5102547;28;20065;-64
2022/11/08 07:15:46;;;;;;;40.63;9.25;;;;;;;14.37;100.00;100248.94;5107842;28;20032;-64
2022/11/08 07:18:14;;;;;;;41.95;9.73;;;;;;;14.37;100.00;100251.66;5094507;28;20060;-65
2022/11/08 07:20:40;;;;;;;42.10;10.38;;;;;;;14.22;100.00;100235.91;5098652;28;20027;-64
2022/11/08 07:23:06;;;;;;;40.58;9.90;;;;;;;14.36;100.00;100248.13;5085598;28;20057;-64
2022/11/08 07:25:33;;;;;;;31.77;9.80;;;;;;;14.26;100.00;100235.19;5105557;28;20043;-65
2022/11/08 07:28:01;;;;;;;36.83;9.45;;;;;;;14.35;100.00;100254.59;5077978;28;20036;-64
2022/11/08 07:30:27;;;;;;;38.70;9.27;;;;;;;14.34;100.00;100251.09;5061878;28;20028;-65
2022/11/08 07:32:54;;;;;;;28.42;7.90;;;;;;;14.37;100.00;100254.34;5105415;28;20028;-65
2022/11/08 07:35:19;;;;;;;32.88;8.30;;;;;;;14.27;100.00;100239.56;5104016;28;20032;-66
2022/11/08 07:37:45;;;;;;;38.03;8.15;;;;;;;14.38;100.00;100254.13;5097868;28;20043;-65
2022/11/08 07:40:13;;;;;;;32.13;8.25;;;;;;;14.39;100.00;100247.66;5109122;28;20057;-65
2022/11/08 07:42:40;;;;;;;28.48;8.88;;;;;;;14.45;100.00;100243.19;5098256;28;20034;-65
2022/11/08 07:45:07;;;;;;;31.02;8.38;;;;;;;14.47;100.00;100250.00;5103223;28;20032;-65
2022/11/08 07:47:32;;;;;;;27.10;7.95;;;;;;;14.45;100.00;100257.53;5087145;28;20032;-64
2022/11/08 07:49:58;;;;;;;35.08;8.13;;;;;;;14.48;100.00;100251.66;5095888;28;20028;-64
2022/11/08 07:52:23;;;;;;;27.75;8.25;;;;;;;14.28;100.00;100210.63;5090707;28;20089;-64
2022/11/08 07:54:49;;;;;;;26.00;7.00;;;;;;;14.51;100.00;100234.13;5081054;28;20028;-64
2022/11/08 07:57:14;;;;;;;25.65;6.70;;;;;;;14.54;100.00;100236.38;5083914;28;20043;-64
2022/11/08 07:59:40;;;;;;;18.83;6.32;;;;;;;14.55;100.00;100243.44;5050307;28;1585556;-64
2022/11/08 08:02:05;;;;;;;21.90;5.97;;;;;;;14.56;100.00;100243.16;5096299;28;20047;-64
2022/11/08 08:04:31;;;;;;;24.38;6.45;;;;;;;14.57;100.00;100244.84;5090689;28;20063;-64
2022/11/08 08:06:59;;;;;;;25.35;5.97;;;;;;;14.54;100.00;100242.59;5101038;28;20023;-64
2022/11/08 08:09:24;;;;;;;24.10;5.95;;;;;;;14.49;100.00;100247.88;5101266;28;20565;-64
2022/11/08 08:11:50;;;;;;;19.70;5.47;;;;;;;14.50;100.00;100251.38;5090338;28;20157;-64
2022/11/08 08:14:15;;;;;;;19.30;5.28;;;;;;;14.55;100.00;100251.53;5096380;28;20028;-65
2022/11/08 08:16:41;;;;;;;14.98;4.65;;;;;;;14.53;100.00;100257.19;5107217;28;20069;-64
2022/11/08 08:19:06;;;;;;;14.10;4.28;;;;;;;14.53;100.00;100259.88;5084012;28;20038;-64
2022/11/08 08:21:31;;;;;;;11.30;3.63;;;;;;;14.57;100.00;100258.38;5100074;28;20428;-64
2022/11/08 08:23:57;;;;;;;11.63;3.35;;;;;;;14.57;100.00;100250.25;5091416;28;20028;-64
2022/11/08 08:26:22;;;;;;;8.57;3.00;;;;;;;14.57;100.00;100239.41;5095302;28;20026;-64
2022/11/08 08:28:48;;;;;;;13.80;3.08;;;;;;;14.59;100.00;100233.75;5087964;28;20055;-64
2022/11/08 08:31:13;;;;;;;6.20;2.30;;;;;;;14.49;100.00;100237.03;5084695;28;20085;-65
2022/11/08 08:33:39;;;;;;;9.05;1.98;;;;;;;14.56;100.00;100245.88;5098856;28;20398;-64
2022/11/08 08:36:04;;;;;;;6.60;1.90;;;;;;;14.55;100.00;100248.84;5109317;28;20050;-64
2022/11/08 08:38:31;;;;;;;5.63;1.50;;;;;;;14.55;100.00;100238.81;5096646;28;20023;-64
2022/11/08 08:40:58;;;;;;;4.72;1.67;;;;;;;14.57;100.00;100249.44;5085633;28;20039;-64
2022/11/08 08:43:23;;;;;;;4.55;1.60;;;;;;;14.40;100.00;100221.41;5105500;28;20027;-64
2022/11/08 08:45:49;;;;;;;6.03;1.70;;;;;;;14.53;100.00;100242.81;5079389;28;20036;-65
2022/11/08 08:48:14;;;;;;;5.57;1.83;;;;;;;14.54;100.00;100248.03;5109239;28;20095;-65
2022/11/08 08:50:40;;;;;;;4.95;1.90;;;;;;;14.47;100.00;100232.91;5079426;28;20545;-65
2022/11/08 08:53:05;;;;;;;8.75;2.67;;;;;;;14.56;100.00;100248.59;5085156;28;20107;-65
2022/11/08 08:55:34;;;;;;;16.75;3.35;;;;;;;14.59;100.00;100251.88;5104882;28;20039;-65
2022/11/08 08:57:59;;;;;;;15.02;3.80;;;;;;;14.62;100.00;100251.41;5095746;28;20061;-65
2022/11/08 09:00:25;;;;;;;19.20;4.32;;;;;;;14.52;100.00;100236.59;5090586;28;20434;-66
2022/11/08 09:02:51;;;;;;;21.77;5.10;;;;;;;14.66;100.00;100247.97;5099041;28;20047;-65
2022/11/08 09:05:17;;;;;;;24.98;5.57;;;;;;;14.67;100.00;100246.09;5101746;28;20044;-65
2022/11/08 09:07:42;;;;;;;30.85;6.35;;;;;;;14.68;100.00;100245.84;5106141;28;20058;-65
2022/11/08 09:10:09;;;;;;;25.88;6.28;;;;;;;14.70;100.00;100241.03;5077064;28;20059;-65
2022/11/08 09:12:35;;;;;;;29.55;5.97;;;;;;;14.72;100.00;100241.59;5107262;28;20028;-65
2022/11/08 09:15:01;;;;;;;27.02;6.82;;;;;;;14.74;100.00;100231.38;5100252;28;20015;-65
2022/11/08 09:17:27;;;;;;;26.40;6.50;;;;;;;14.78;100.00;100237.13;5100205;28;20035;-65
2022/11/08 09:19:53;;;;;;;35.45;7.20;;;;;;;14.80;100.00;100238.53;5107585;28;20064;-66
2022/11/08 09:22:18;;;;;;;33.60;6.47;;;;;;;14.83;100.00;100234.50;5094912;28;20483;-65
2022/11/08 09:24:44;;;;;;;40.33;6.55;;;;;;;14.76;100.00;100229.22;5105770;28;20040;-65
2022/11/08 09:27:09;;;;;;;35.40;7.07;;;;;;;14.79;100.00;100253.13;5066334;28;20372;-65
2022/11/08 09:29:34;;;;;;;33.15;7.75;;;;;;;14.82;100.00;100254.53;5080543;28;20043;-65
2022/11/08 09:32:00;;;;;;;29.65;6.90;;;;;;;14.85;100.00;100247.81;5089963;28;20444;-65
2022/11/08 09:34:26;;;;;;;33.63;7.15;;;;;;;14.91;100.00;100255.81;5076788;28;20027;-65
2022/11/08 09:36:51;;;;;;;32.53;7.00;;;;;;;14.90;100.00;100259.59;5104563;28;20114;-65
2022/11/08 09:39:17;;;;;;;29.73;6.93;;;;;;;14.96;100.00;100258.59;5084072;28;20035;-66
2022/11/08 09:42:01;;;;;;;57.38;15.30;;;;;;;14.98;100.00;100258.38;5097562;28;20402;-65
2022/11/08 09:44:39;;;;;;;38.28;7.53;;;;;;;15.02;100.00;100252.22;5078536;28;20026;-65
2022/11/08 09:47:34;;;;;;;38.50;7.60;;;;;;;15.10;100.00;100252.88;5103092;28;20028;-65
2022/11/08 09:50:24;;;;;;;40.45;8.38;;;;;;;15.18;100.00;100257.94;5082980;28;20051;-65
2022/11/08 09:53:02;;;;;;;49.30;8.20;;;;;;;15.22;100.00;100256.38;5084344;28;20036;-65
2022/11/08 09:55:36;;;;;;;34.17;7.10;;;;;;;15.28;100.00;100258.94;5099540;28;20028;-65
2022/11/08 09:58:01;;;;;;;;;;;;;;;15.33;100.00;100260.94;5108504;28;20042;-64
2022/11/08 10:00:27;;;;;;;43.38;10.10;;;;;;;15.22;100.00;100240.09;5094840;28;19919;-66
2022/11/08 10:02:53;;;;;;;47.47;10.70;;;;;;;15.37;100.00;100262.06;5104786;28;20491;-65
2022/11/08 10:05:19;;;;;;;47.10;8.27;;;;;;;15.39;100.00;100264.53;5102012;28;20034;-65
2022/11/08 10:07:53;;;;;;;45.25;8.60;;;;;;;15.37;100.00;100256.66;5097419;28;20048;-65
2022/11/08 10:10:33;;;;;;;46.17;8.02;;;;;;;15.50;100.00;100260.94;5108133;28;20062;-64
2022/11/08 10:12:59;;;;;;;40.70;7.78;;;;;;;15.50;100.00;100264.47;5099348;28;20438;-64
2022/11/08 10:15:42;;;;;;;48.50;9.10;;;;;;;15.53;100.00;100274.03;5082053;28;20803;-65
2022/11/08 10:18:26;;;;;;;50.53;8.52;;;;;;;15.52;100.00;100273.16;5107936;28;20142;-66
2022/11/08 10:21:03;;;;;;;50.42;8.73;;;;;;;15.50;100.00;100271.78;5080108;28;20030;-65
2022/11/08 10:23:53;;;;;;;43.17;8.88;;;;;;;15.54;100.00;100267.53;5081231;28;20494;-65
2022/11/08 10:26:20;;;;;;;41.40;8.00;;;;;;;15.49;100.00;100260.09;5107897;28;20040;-65
2022/11/08 10:28:53;;;;;;;53.05;8.98;;;;;;;15.57;100.00;100261.59;5097745;28;20108;-65
2022/11/08 10:31:19;;;;;;;48.30;8.35;;;;;;;15.54;100.00;100264.00;5102777;28;20123;-63
2022/11/08 10:33:45;;;;;;;39.03;8.00;;;;;;;15.51;100.00;100260.69;5058047;28;20066;-65
2022/11/08 10:36:16;;;;;;;45.92;8.40;;;;;;;15.58;100.00;100246.16;5109008;28;20031;-65
2022/11/08 10:38:52;;;;;;;49.15;9.52;;;;;;;15.49;100.00;100235.69;5082594;28;20015;-65
2022/11/08 10:41:32;;;;;;;45.92;8.57;;;;;;;15.62;100.00;100255.44;5083335;28;20055;-64
2022/11/08 10:44:09;;;;;;;45.75;9.35;;;;;;;15.63;100.00;100251.66;5112525;28;20027;-65
2022/11/08 10:46:47;;;;;;;47.35;9.13;;;;;;;15.67;100.00;100240.09;5084436;28;20028;-65
2022/11/08 10:49:29;;;;;;;44.38;9.10;;;;;;;15.62;100.00;100233.75;5091297;28;20058;-66
2022/11/08 10:51:57;;;;;;;50.55;8.77;;;;;;;15.66;100.00;100245.72;5119386;28;20096;-65
2022/11/08 10:54:44;;;;;;;51.92;9.65;;;;;;;15.69;100.00;100235.28;5112458;28;20036;-65
2022/11/08 10:57:34;;;;;;;40.78;8.50;;;;;;;15.65;100.00;100225.94;5118085;28;20034;-64
2022/11/08 11:00:21;;;;;;;39.88;8.27;;;;;;;15.71;100.00;100230.41;5129478;28;20048;-67
2022/11/08 11:02:49;;;;;;;38.00;8.07;;;;;;;15.74;100.00;100240.75;5089320;28;20057;-65
2022/11/08 11:05:15;;;;;;;40.47;8.02;;;;;;;15.66;100.00;100237.59;5125141;28;20058;-66
2022/11/08 11:07:44;;;;;;;42.95;8.65;;;;;;;15.59;100.00;100223.38;5128278;28;20031;-65
2022/11/08 11:10:15;;;;;;;47.83;8.02;;;;;;;15.60;100.00;100242.13;5117275;28;20036;-72
2022/11/08 11:12:41;;;;;;;43.17;8.27;;;;;;;15.48;100.00;100216.97;5110908;28;20047;-66
2022/11/08 11:15:14;;;;;;;36.10;8.02;;;;;;;15.50;100.00;100215.66;5122688;28;20028;-66
2022/11/08 11:17:44;;;;;;;39.90;7.47;;;;;;;15.56;100.00;100232.00;5084517;28;20035;-67
2022/11/08 11:20:22;;;;;;;44.83;8.70;;;;;;;15.63;100.00;100233.50;5122135;28;20054;-65
2022/11/08 11:22:49;;;;;;;43.78;7.70;;;;;;;15.61;100.00;100229.41;5115933;28;20038;-66
2022/11/08 11:25:18;;;;;;;35.53;8.10;;;;;;;15.56;100.00;100232.00;5103270;28;20107;-65
2022/11/08 11:27:50;;;;;;;45.38;9.27;;;;;;;15.53;100.00;100227.91;5105195;28;20031;-65
2022/11/08 11:30:29;;;;;;;39.38;8.20;;;;;;;15.48;100.00;100228.63;5113361;28;20020;-65